createdAt,value
2024-01-10T00:00:31.560Z,18.050
2024-01-10T00:01:23.026Z,16.800
2024-01-10T00:02:22.487Z,16.800
2024-01-10T00:03:37.704Z,15.900
2024-01-10T00:04:30.318Z,17.500
2024-01-10T00:05:50.965Z,17.200
2024-01-10T00:06:19.856Z,18.500
2024-01-10T00:07:42.859Z,16.650
2024-01-10T00:08:32.374Z,16.700
2024-01-10T00:09:33.821Z,16.500
2024-01-10T00:10:58.893Z,17.550
2024-01-10T00:11:37.492Z,17.100
2024-01-10T00:12:26.907Z,17.900
2024-01-10T00:13:56.662Z,17.500
2024-01-10T00:14:45.615Z,16.800
2024-01-10T00:15:27.378Z,17.700
2024-01-10T00:16:25.304Z,18.800
2024-01-10T00:17:45.767Z,16.600
2024-01-10T00:18:29.579Z,15.000
2024-01-10T00:19:24.181Z,16.800
2024-01-10T00:20:23.785Z,18.300
2024-01-10T00:21:29.713Z,18.400
2024-01-10T00:22:39.565Z,16.400
2024-01-10T00:23:23.334Z,15.700
2024-01-10T00:24:21.959Z,16.450
2024-01-10T00:25:27.699Z,17.900
2024-01-10T00:26:23.421Z,16.950
2024-01-10T00:27:20.914Z,17.500
2024-01-10T00:28:30.820Z,16.250
2024-01-10T00:29:25.300Z,17.300
2024-01-10T00:30:21.388Z,17.500
2024-01-10T00:31:26.737Z,18.400
2024-01-10T00:32:29.841Z,16.800
2024-01-10T00:33:23.345Z,16.500
2024-01-10T00:34:19.496Z,16.400
2024-01-10T00:35:23.005Z,16.700
2024-01-10T00:36:25.259Z,17.950
2024-01-10T00:37:42.998Z,17.900
2024-01-10T00:38:31.824Z,18.300
2024-01-10T00:39:24.142Z,18.800
2024-01-10T00:40:24.090Z,16.800
2024-01-10T00:41:19.494Z,16.050
2024-01-10T00:42:26.290Z,15.300
2024-01-10T00:43:25.217Z,16.200
2024-01-10T00:44:21.244Z,16.000
2024-01-10T00:45:34.637Z,17.500
2024-01-10T00:46:29.087Z,17.750
2024-01-10T00:47:21.879Z,16.900
2024-01-10T00:48:19.483Z,16.900
2024-01-10T00:49:30.631Z,18.150
2024-01-10T00:50:21.578Z,15.400
2024-01-10T00:51:21.286Z,15.900
2024-01-10T00:52:33.669Z,16.000
2024-01-10T00:53:32.000Z,17.300
2024-01-10T00:54:25.076Z,18.050
2024-01-10T00:55:22.165Z,17.800
2024-01-10T00:56:33.784Z,16.650
2024-01-10T00:57:40.816Z,16.450
2024-01-10T00:58:22.762Z,17.600
2024-01-10T00:59:32.024Z,17.400
2024-01-10T01:00:27.640Z,17.100
2024-01-10T01:01:30.411Z,16.850
2024-01-10T01:02:21.847Z,18.300
2024-01-10T01:03:29.695Z,16.600
2024-01-10T01:04:25.540Z,16.650
2024-01-10T01:05:22.732Z,16.400
2024-01-10T01:06:34.990Z,16.600
2024-01-10T01:07:44.193Z,16.800
2024-01-10T01:08:26.149Z,15.700
2024-01-10T01:09:19.752Z,17.450
2024-01-10T01:10:29.407Z,17.100
2024-01-10T01:11:26.432Z,17.400
2024-01-10T01:12:24.449Z,17.500
2024-01-10T01:13:20.025Z,16.150
2024-01-10T01:14:29.989Z,15.800
2024-01-10T01:15:23.670Z,17.500
2024-01-10T01:16:32.056Z,17.000
2024-01-10T01:17:23.056Z,17.350
2024-01-10T01:18:25.882Z,17.400
2024-01-10T01:19:21.878Z,16.300
2024-01-10T01:20:23.594Z,16.700
2024-01-10T01:21:28.335Z,15.600
2024-01-10T01:22:25.543Z,16.900
2024-01-10T01:23:29.715Z,17.050
2024-01-10T01:24:30.044Z,16.100
2024-01-10T01:25:20.345Z,17.800
2024-01-10T01:26:35.957Z,17.450
2024-01-10T01:27:27.495Z,17.150
2024-01-10T01:28:21.992Z,17.900
2024-01-10T01:29:25.803Z,17.850
2024-01-10T01:30:19.509Z,17.900
2024-01-10T01:31:31.360Z,16.500
2024-01-10T01:32:27.036Z,17.150
2024-01-10T01:33:21.723Z,15.800
2024-01-10T01:34:32.331Z,15.600
2024-01-10T01:35:30.473Z,16.800
2024-01-10T01:36:23.403Z,18.600
2024-01-10T01:37:19.756Z,18.800
2024-01-10T01:38:32.144Z,17.900
2024-01-10T01:39:25.946Z,16.550
2024-01-10T01:40:22.479Z,16.700
2024-01-10T01:41:31.981Z,18.050
2024-01-10T01:42:29.066Z,17.900
2024-01-10T01:43:22.016Z,18.500
2024-01-10T01:44:19.423Z,15.500
2024-01-10T01:45:41.489Z,15.900
2024-01-10T01:46:26.462Z,19.900
2024-01-10T01:47:27.227Z,18.000
2024-01-10T01:48:32.004Z,17.100
2024-01-10T01:49:27.836Z,15.600
2024-01-10T01:50:25.519Z,16.750
2024-01-10T01:51:19.548Z,17.000
2024-01-10T01:52:29.688Z,18.000
2024-01-10T01:53:28.765Z,18.700
2024-01-10T01:54:21.290Z,16.950
2024-01-10T01:55:23.248Z,16.850
2024-01-10T01:56:27.760Z,16.400
2024-01-10T01:57:31.237Z,17.200
2024-01-10T01:58:19.502Z,17.950
2024-01-10T01:59:30.960Z,16.100
2024-01-10T02:00:28.030Z,15.900
2024-01-10T02:01:41.451Z,16.800
2024-01-10T02:02:33.409Z,17.500
2024-01-10T02:03:23.791Z,19.000
2024-01-10T02:04:24.254Z,18.500
2024-01-10T02:05:51.123Z,16.300
2024-01-10T02:06:31.026Z,16.600
2024-01-10T02:07:57.258Z,18.300
2024-01-10T02:20:33.408Z,18.100
2024-01-10T02:21:22.869Z,17.850
2024-01-10T02:22:31.408Z,16.300
2024-01-10T02:23:48.740Z,16.500
2024-01-10T02:24:33.645Z,16.600
2024-01-10T02:25:36.979Z,16.000
2024-01-10T02:26:40.524Z,17.000
2024-01-10T02:27:32.160Z,17.250
2024-01-10T02:29:25.431Z,18.800
2024-01-10T02:29:32.595Z,17.200
2024-01-10T02:30:31.964Z,16.800
2024-01-10T02:31:39.233Z,16.600
2024-01-10T02:38:29.871Z,16.200
2024-01-10T02:39:24.274Z,15.900
2024-01-10T02:40:27.439Z,15.900
2024-01-10T02:41:22.106Z,17.200
2024-01-10T02:42:33.891Z,15.650
2024-01-10T02:43:21.853Z,15.800
2024-01-10T02:44:33.239Z,16.300
2024-01-10T02:45:28.169Z,16.700
2024-01-10T02:46:25.495Z,17.400
2024-01-10T02:47:19.498Z,16.750
2024-01-10T02:48:24.776Z,16.000
2024-01-10T02:49:26.660Z,16.200
2024-01-10T02:50:30.009Z,17.200
2024-01-10T02:51:23.983Z,16.500
2024-01-10T02:52:29.158Z,15.750
2024-01-10T02:53:24.653Z,16.700
2024-01-10T02:54:27.103Z,15.950
2024-01-10T02:55:32.838Z,17.350
2024-01-10T02:56:23.210Z,16.700
2024-01-10T02:57:22.066Z,15.900
2024-01-10T02:58:27.012Z,18.400
2024-01-10T02:59:22.344Z,16.800
2024-01-10T03:00:25.789Z,16.100
2024-01-10T03:01:35.104Z,17.200
2024-01-10T03:02:29.782Z,18.100
2024-01-10T03:03:27.898Z,16.750
2024-01-10T03:04:24.068Z,16.500
2024-01-10T03:05:32.344Z,17.650
2024-01-10T03:06:24.771Z,18.300
2024-01-10T03:07:39.820Z,15.900
2024-01-10T03:08:19.859Z,16.500
2024-01-10T03:09:30.964Z,17.150
2024-01-10T03:10:25.471Z,17.450
2024-01-10T03:11:25.432Z,18.500
2024-01-10T03:12:34.526Z,16.800
2024-01-10T03:13:27.690Z,16.700
2024-01-10T03:14:22.399Z,16.750
2024-01-10T03:15:36.595Z,17.750
2024-01-10T03:16:29.400Z,17.000
2024-01-10T03:17:27.592Z,16.450
2024-01-10T03:18:23.536Z,16.200
2024-01-10T03:19:22.325Z,16.700
2024-01-10T03:20:33.283Z,17.850
2024-01-10T03:21:24.593Z,16.700
2024-01-10T03:22:20.023Z,17.100
2024-01-10T03:23:32.735Z,18.500
2024-01-10T03:24:25.370Z,19.500
2024-01-10T03:25:23.368Z,18.500
2024-01-10T03:26:24.985Z,16.250
2024-01-10T03:27:28.006Z,15.700
2024-01-10T03:28:30.382Z,17.400
2024-01-10T03:29:21.951Z,16.800
2024-01-10T03:30:31.189Z,16.700
2024-01-10T03:31:25.804Z,17.600
2024-01-10T03:32:22.910Z,18.200
2024-01-10T03:33:32.996Z,19.200
2024-01-10T03:34:23.665Z,17.900
2024-01-10T03:35:32.325Z,19.800
2024-01-10T03:36:25.320Z,17.900
2024-01-10T03:37:29.792Z,18.150
2024-01-10T03:38:27.879Z,17.350
2024-01-10T03:39:21.902Z,18.050
2024-01-10T03:40:35.199Z,17.300
2024-01-10T03:41:27.740Z,18.100
2024-01-10T03:42:19.094Z,16.400
2024-01-10T03:43:19.388Z,17.000
2024-01-10T03:44:22.357Z,17.500
2024-01-10T03:45:25.780Z,15.700
2024-01-10T03:46:23.989Z,16.200
2024-01-10T03:47:32.632Z,15.650
2024-01-10T03:48:30.539Z,17.200
2024-01-10T03:49:25.406Z,16.150
2024-01-10T03:50:21.424Z,16.800
2024-01-10T03:51:26.480Z,14.500
2024-01-10T03:52:19.516Z,16.750
2024-01-10T03:53:21.773Z,16.500
2024-01-10T03:54:32.657Z,16.150
2024-01-10T03:55:27.600Z,17.300
2024-01-10T03:56:25.733Z,16.250
2024-01-10T03:57:21.427Z,15.400
2024-01-10T03:58:32.612Z,15.850
2024-01-10T03:59:25.784Z,16.500
2024-01-10T04:00:22.203Z,15.200
2024-01-10T04:01:33.095Z,15.900
2024-01-10T04:02:27.834Z,15.300
2024-01-10T04:03:31.638Z,15.400
2024-01-10T04:04:20.951Z,16.700
2024-01-10T04:05:29.773Z,17.200
2024-01-10T04:06:27.683Z,17.300
2024-01-10T04:07:21.748Z,16.500
2024-01-10T04:08:33.449Z,16.200
2024-01-10T04:09:44.106Z,15.900
2024-01-10T04:10:25.855Z,16.600
2024-01-10T04:11:29.347Z,17.100
2024-01-10T04:12:22.961Z,16.650
2024-01-10T04:13:25.562Z,16.850
2024-01-10T04:14:24.283Z,16.300
2024-01-10T04:15:33.538Z,16.950
2024-01-10T04:16:27.568Z,16.100
2024-01-10T04:17:42.450Z,17.200
2024-01-10T04:18:21.459Z,15.800
2024-01-10T04:19:26.320Z,16.700
2024-01-10T04:20:19.311Z,17.550
2024-01-10T04:21:21.636Z,18.100
2024-01-10T04:22:21.392Z,17.250
2024-01-10T04:23:27.993Z,15.600
2024-01-10T04:24:24.764Z,15.900
2024-01-10T04:25:36.030Z,15.450
2024-01-10T04:26:31.201Z,15.400
2024-01-10T04:27:26.036Z,15.000
2024-01-10T04:28:21.520Z,16.050
2024-01-10T04:29:25.616Z,16.200
2024-01-10T04:30:27.962Z,17.200
2024-01-10T04:31:23.921Z,16.900
2024-01-10T04:32:20.965Z,15.800
2024-01-10T04:33:31.821Z,16.900
2024-01-10T04:34:27.493Z,17.900
2024-01-10T04:35:22.669Z,16.500
2024-01-10T04:36:31.809Z,16.250
2024-01-10T04:37:24.484Z,16.500
2024-01-10T04:38:23.926Z,17.050
2024-01-10T04:39:19.482Z,15.300
2024-01-10T04:40:40.212Z,16.900
2024-01-10T04:41:27.021Z,17.500
2024-01-10T04:42:24.561Z,18.500
2024-01-10T04:43:34.875Z,17.000
2024-01-10T04:44:27.796Z,15.700
2024-01-10T04:45:20.379Z,16.400
2024-01-10T04:46:20.814Z,18.900
2024-01-10T04:47:31.473Z,17.000
2024-01-10T04:48:27.705Z,17.300
2024-01-10T04:49:31.180Z,16.600
2024-01-10T04:50:22.274Z,16.000
2024-01-10T04:51:30.399Z,15.900
2024-01-10T04:52:23.829Z,15.900
2024-01-10T04:53:33.732Z,17.400
2024-01-10T04:54:31.710Z,16.850
2024-01-10T04:55:26.451Z,17.000
2024-01-10T04:56:25.403Z,16.800
2024-01-10T04:57:26.365Z,16.750
2024-01-10T04:58:19.392Z,16.700
2024-01-10T04:59:28.330Z,16.950
2024-01-10T05:00:20.445Z,15.900
2024-01-10T05:01:31.006Z,18.200
2024-01-10T05:02:25.761Z,17.200
2024-01-10T05:03:24.553Z,16.300
2024-01-10T05:04:33.628Z,16.900
2024-01-10T05:05:24.669Z,18.500
2024-01-10T05:06:23.739Z,17.450
2024-01-10T05:07:19.849Z,17.200
2024-01-10T05:08:32.124Z,18.200
2024-01-10T05:09:25.723Z,17.000
2024-01-10T05:10:38.028Z,16.750
2024-01-10T05:11:36.076Z,17.200
2024-01-10T05:12:29.169Z,17.200
2024-01-10T05:13:20.768Z,17.800
2024-01-10T05:14:19.840Z,18.150
2024-01-10T05:15:21.586Z,17.300
2024-01-10T05:16:39.855Z,16.600
2024-01-10T05:17:21.848Z,17.700
2024-01-10T05:18:32.294Z,18.500
2024-01-10T05:19:33.355Z,17.800
2024-01-10T05:20:27.309Z,18.200
2024-01-10T05:21:20.978Z,16.000
2024-01-10T05:22:25.281Z,16.750
2024-01-10T05:23:26.424Z,16.100
2024-01-10T05:24:22.473Z,16.300
2024-01-10T05:25:32.376Z,16.700
2024-01-10T05:26:28.011Z,16.300
2024-01-10T05:27:24.985Z,16.100
2024-01-10T05:28:25.144Z,16.200
2024-01-10T05:29:29.922Z,16.450
2024-01-10T05:30:26.979Z,16.500
2024-01-10T05:31:37.018Z,16.850
2024-01-10T05:32:31.929Z,16.400
2024-01-10T05:33:29.856Z,17.150
2024-01-10T05:34:24.163Z,17.400
2024-01-10T05:35:21.618Z,16.550
2024-01-10T05:36:19.291Z,17.750
2024-01-10T05:37:26.537Z,18.000
2024-01-10T05:38:22.553Z,17.350
2024-01-10T05:39:34.668Z,17.300
2024-01-10T05:40:27.794Z,16.550
2024-01-10T05:41:25.866Z,16.700
2024-01-10T05:42:20.068Z,16.100
2024-01-10T05:43:23.797Z,16.300
2024-01-10T05:44:26.038Z,16.800
2024-01-10T05:45:24.739Z,17.550
2024-01-10T05:46:34.305Z,16.200
2024-01-10T05:47:27.903Z,15.800
2024-01-10T05:48:25.214Z,16.150
2024-01-10T05:49:36.028Z,16.400
2024-01-10T05:50:29.968Z,16.200
2024-01-10T05:51:21.713Z,16.150
2024-01-10T05:52:21.911Z,15.600
2024-01-10T05:53:22.571Z,16.000
2024-01-10T05:54:28.862Z,17.100
2024-01-10T05:55:25.396Z,16.250
2024-01-10T05:56:19.968Z,17.500
2024-01-10T05:57:33.164Z,17.700
2024-01-10T05:58:25.894Z,17.900
2024-01-10T05:59:22.040Z,18.600
2024-01-10T06:00:24.233Z,16.400
2024-01-10T06:01:28.165Z,16.400
2024-01-10T06:02:23.960Z,17.800
2024-01-10T06:03:21.866Z,19.400
2024-01-10T06:04:38.463Z,18.300
2024-01-10T06:05:25.883Z,16.600
2024-01-10T06:06:24.496Z,16.650
2024-01-10T06:07:28.458Z,16.800
2024-01-10T06:09:38.117Z,16.800
2024-01-10T06:10:19.892Z,18.150
2024-01-10T06:11:30.407Z,17.700
2024-01-10T06:12:27.793Z,17.050
2024-01-10T06:13:22.021Z,18.500
2024-01-10T06:14:21.516Z,18.900
2024-01-10T06:15:28.030Z,19.500
2024-01-10T06:16:23.768Z,17.000
2024-01-10T06:17:19.950Z,16.300
2024-01-10T06:18:45.357Z,16.850
2024-01-10T06:19:27.146Z,18.100
2024-01-10T06:20:21.695Z,16.900
2024-01-10T06:21:23.790Z,16.550
2024-01-10T06:22:30.913Z,16.750
2024-01-10T06:23:25.650Z,15.800
2024-01-10T06:24:20.238Z,16.450
2024-01-10T06:25:45.358Z,16.800
2024-01-10T06:26:27.464Z,18.200
2024-01-10T06:27:22.077Z,17.800
2024-01-10T06:28:29.118Z,17.900
2024-01-10T06:29:20.694Z,17.450
2024-01-10T06:30:26.393Z,18.500
2024-01-10T06:31:19.793Z,19.200
2024-01-10T06:32:30.188Z,15.900
2024-01-10T06:33:29.124Z,15.700
2024-01-10T06:34:22.243Z,18.150
2024-01-10T06:35:46.147Z,16.500
2024-01-10T06:36:26.308Z,18.500
2024-01-10T06:37:25.710Z,18.800
2024-01-10T06:38:22.246Z,17.050
2024-01-10T06:39:46.028Z,17.800
2024-01-10T06:40:28.008Z,17.800
2024-01-10T06:41:22.112Z,16.700
2024-01-10T06:42:31.906Z,17.700
2024-01-10T06:43:29.064Z,16.200
2024-01-10T06:44:24.503Z,18.500
2024-01-10T06:45:20.147Z,19.100
2024-01-10T06:46:20.384Z,19.400
2024-01-10T06:47:27.371Z,17.450
2024-01-10T06:48:22.786Z,17.900
2024-01-10T06:49:33.190Z,17.850
2024-01-10T06:50:27.952Z,18.700
2024-01-10T06:51:27.769Z,17.250
2024-01-10T06:52:19.581Z,17.500
2024-01-10T06:53:24.687Z,18.350
2024-01-10T06:54:41.487Z,18.200
2024-01-10T06:55:22.038Z,19.300
2024-01-10T06:56:33.334Z,17.950
2024-01-10T06:57:27.960Z,19.200
2024-01-10T06:58:25.174Z,17.900
2024-01-10T06:59:20.219Z,17.300
2024-01-10T07:00:30.750Z,19.500
2024-01-10T07:01:21.248Z,18.100
2024-01-10T07:02:22.119Z,17.100
2024-01-10T07:03:33.980Z,18.850
2024-01-10T07:04:27.794Z,19.100
2024-01-10T07:05:26.176Z,18.250
2024-01-10T07:06:20.141Z,18.700
2024-01-10T07:07:22.276Z,17.100
2024-01-10T07:08:26.039Z,18.950
2024-01-10T07:09:23.875Z,19.000
2024-01-10T07:10:48.636Z,18.450
2024-01-10T07:11:33.024Z,17.200
2024-01-10T07:12:26.028Z,19.400
2024-01-10T07:13:20.009Z,19.600
2024-01-10T07:14:26.640Z,18.650
2024-01-10T07:15:25.724Z,17.650
2024-01-10T07:16:22.591Z,18.200
2024-01-10T07:17:33.548Z,19.750
2024-01-10T07:18:29.006Z,18.700
2024-01-10T07:19:25.206Z,18.350
2024-01-10T07:20:19.856Z,19.350
2024-01-10T07:21:30.202Z,18.900
2024-01-10T07:22:23.549Z,19.350
2024-01-10T07:23:26.554Z,18.500
2024-01-10T07:24:19.565Z,18.850
2024-01-10T07:25:28.541Z,17.200
2024-01-10T07:26:24.932Z,18.300
2024-01-10T07:27:21.374Z,17.000
2024-01-10T07:28:31.337Z,18.050
2024-01-10T07:29:26.711Z,17.700
2024-01-10T07:30:22.461Z,17.950
2024-01-10T07:31:23.834Z,18.600
2024-01-10T07:32:28.239Z,19.250
2024-01-10T07:33:25.765Z,20.000
2024-01-10T07:34:20.754Z,20.300
2024-01-10T07:35:32.403Z,21.100
2024-01-10T07:36:26.064Z,18.800
2024-01-10T07:37:25.268Z,18.250
2024-01-10T07:38:27.352Z,18.100
2024-01-10T07:39:20.276Z,17.400
2024-01-10T07:40:24.161Z,20.850
2024-01-10T07:41:21.169Z,18.800
2024-01-10T07:42:32.725Z,19.000
2024-01-10T07:43:26.029Z,20.200
2024-01-10T07:44:23.733Z,21.100
2024-01-10T07:45:23.141Z,22.000
2024-01-10T07:46:25.384Z,19.200
2024-01-10T07:47:24.288Z,19.100
2024-01-10T07:48:21.151Z,19.200
2024-01-10T07:49:31.832Z,20.600
2024-01-10T07:50:28.049Z,18.100
2024-01-10T07:51:24.033Z,20.000
2024-01-10T07:52:25.834Z,20.000
2024-01-10T07:53:28.621Z,18.700
2024-01-10T07:54:21.457Z,19.700
2024-01-10T07:55:20.136Z,19.700
2024-01-10T07:56:45.516Z,19.800
2024-01-10T07:57:27.389Z,20.200
2024-01-10T07:58:23.278Z,22.400
2024-01-10T07:59:29.269Z,21.400
2024-01-10T08:00:22.667Z,18.500
2024-01-10T08:01:26.598Z,18.800
2024-01-10T08:02:20.192Z,18.500
2024-01-10T08:03:46.310Z,21.600
2024-01-10T08:04:48.745Z,20.500
2024-01-10T08:05:23.899Z,18.700
2024-01-10T08:06:34.208Z,18.550
2024-01-10T08:07:28.352Z,20.000
2024-01-10T08:08:19.768Z,21.300
2024-01-10T08:09:22.437Z,21.150
2024-01-10T08:10:32.024Z,20.300
2024-01-10T08:11:26.149Z,20.100
2024-01-10T08:12:23.876Z,19.650
2024-01-10T08:13:39.895Z,20.050
2024-01-10T08:14:31.075Z,22.600
2024-01-10T08:15:24.414Z,20.100
2024-01-10T08:16:28.013Z,19.500
2024-01-10T08:17:22.524Z,22.250
2024-01-10T08:18:57.507Z,22.900
2024-01-10T08:19:22.030Z,20.300
2024-01-10T08:20:42.143Z,22.200
2024-01-10T08:21:37.057Z,20.150
2024-01-10T08:22:29.865Z,20.900
2024-01-10T08:23:21.101Z,20.200
2024-01-10T08:24:24.696Z,21.200
2024-01-10T08:25:26.278Z,20.450
2024-01-10T08:26:37.937Z,20.200
2024-01-10T08:27:32.344Z,21.900
2024-01-10T08:28:29.294Z,23.400
2024-01-10T08:29:28.100Z,22.300
2024-01-10T08:30:26.559Z,20.200
2024-01-10T08:31:31.045Z,21.900
2024-01-10T08:33:22.503Z,21.500
2024-01-10T08:34:47.735Z,21.800
2024-01-10T08:35:29.900Z,20.800
2024-01-10T08:36:38.409Z,21.000
2024-01-10T08:37:29.442Z,21.400
2024-01-10T08:38:22.721Z,21.300
2024-01-10T08:39:26.063Z,22.450
2024-01-10T08:41:48.366Z,20.450
2024-01-10T08:42:44.871Z,21.300
2024-01-10T08:43:26.114Z,22.700
2024-01-10T08:44:20.532Z,23.000
2024-01-10T08:45:26.932Z,23.050
2024-01-10T08:46:19.892Z,22.050
2024-01-10T08:47:22.401Z,24.800
2024-01-10T08:48:33.582Z,24.450
2024-01-10T08:49:43.361Z,24.000
2024-01-10T08:50:25.636Z,23.100
2024-01-10T08:51:35.120Z,22.800
2024-01-10T08:52:31.056Z,24.350
2024-01-10T08:53:26.241Z,22.200
2024-01-10T08:54:25.606Z,22.500
2024-01-10T08:55:32.579Z,21.450
2024-01-10T08:56:28.936Z,23.250
2024-01-10T08:57:24.066Z,25.000
2024-01-10T08:58:22.357Z,22.500
2024-01-10T08:59:36.434Z,22.300
2024-01-10T09:00:28.095Z,24.200
2024-01-10T09:01:22.111Z,23.500
2024-01-10T09:02:22.559Z,24.750
2024-01-10T09:03:29.117Z,23.400
2024-01-10T09:04:55.038Z,25.250
2024-01-10T09:05:20.187Z,25.500
2024-01-10T09:06:41.513Z,22.100
2024-01-10T09:07:26.920Z,22.800
2024-01-10T09:08:22.163Z,25.400
2024-01-10T09:09:26.793Z,24.800
2024-01-10T09:10:30.115Z,25.600
2024-01-10T09:11:59.989Z,25.200
2024-01-10T09:12:20.038Z,24.400
2024-01-10T09:13:32.359Z,23.800
2024-01-10T09:14:26.454Z,23.900
2024-01-10T09:15:24.045Z,23.600
2024-01-10T09:16:22.878Z,24.250
2024-01-10T09:17:23.285Z,23.300
2024-01-10T09:18:24.609Z,21.900
2024-01-10T09:19:22.115Z,21.800
2024-01-10T09:20:31.498Z,24.350
2024-01-10T09:21:40.557Z,23.800
2024-01-10T09:22:38.247Z,23.400
2024-01-10T09:23:28.573Z,22.000
2024-01-10T09:24:28.523Z,23.650
2024-01-10T09:25:20.124Z,24.900
2024-01-10T09:26:20.094Z,24.850
2024-01-10T09:27:53.645Z,25.000
2024-01-10T09:28:41.913Z,23.700
2024-01-10T09:29:23.964Z,23.900
2024-01-10T09:30:32.205Z,23.700
2024-01-10T09:31:24.046Z,23.700
2024-01-10T09:32:23.952Z,24.400
2024-01-10T09:33:35.622Z,24.650
2024-01-10T09:34:30.355Z,24.400
2024-01-10T09:35:28.492Z,24.700
2024-01-10T09:36:36.035Z,25.000
2024-01-10T09:37:33.994Z,23.550
2024-01-10T09:38:37.119Z,24.300
2024-01-10T09:39:22.841Z,25.900
2024-01-10T09:40:21.409Z,24.600
2024-01-10T09:41:45.686Z,24.900
2024-01-10T09:42:27.658Z,24.200
2024-01-10T09:43:22.262Z,22.750
2024-01-10T09:44:33.416Z,23.900
2024-01-10T09:45:28.964Z,23.300
2024-01-10T09:46:26.134Z,23.450
2024-01-10T09:47:25.324Z,24.900
2024-01-10T09:48:46.189Z,23.400
2024-01-10T09:49:28.148Z,23.850
2024-01-10T09:50:51.888Z,22.150
2024-01-10T09:51:33.984Z,22.000
2024-01-10T09:52:38.688Z,23.300
2024-01-10T09:53:26.486Z,21.800
2024-01-10T09:54:23.518Z,21.600
2024-01-10T09:55:25.030Z,21.800
2024-01-10T09:56:41.310Z,23.050
2024-01-10T09:57:38.284Z,22.900
2024-01-10T09:58:49.147Z,22.600
2024-01-10T09:59:44.011Z,25.500
2024-01-10T10:00:25.929Z,22.700
2024-01-10T10:01:27.563Z,23.300
2024-01-10T10:02:26.436Z,25.000
2024-01-10T10:03:21.197Z,24.350
2024-01-10T10:05:00.677Z,25.800
2024-01-10T10:05:33.601Z,27.050
2024-01-10T10:06:28.710Z,25.300
2024-01-10T10:07:39.375Z,23.950
2024-01-10T10:08:21.382Z,23.400
2024-01-10T10:09:24.503Z,25.600
2024-01-10T10:10:23.320Z,25.200
2024-01-10T10:11:22.388Z,23.350
2024-01-10T10:12:32.498Z,25.600
2024-01-10T10:13:51.022Z,25.100
2024-01-10T10:14:43.605Z,25.600
2024-01-10T10:15:21.633Z,23.300
2024-01-10T10:16:30.460Z,24.200
2024-01-10T10:17:21.370Z,27.100
2024-01-10T10:18:20.537Z,27.300
2024-01-10T10:19:48.593Z,27.450
2024-01-10T10:20:30.233Z,24.600
2024-01-10T10:21:40.118Z,24.650
2024-01-10T10:22:21.882Z,25.200
2024-01-10T10:23:33.959Z,25.600
2024-01-10T10:24:27.252Z,25.100
2024-01-10T10:25:24.147Z,25.800
2024-01-10T10:26:47.615Z,26.400
2024-01-10T10:27:42.578Z,23.700
2024-01-10T10:28:32.274Z,23.400
2024-01-10T10:29:48.176Z,22.650
2024-01-10T10:30:38.294Z,22.900
2024-01-10T10:31:26.417Z,25.800
2024-01-10T10:32:22.768Z,23.600
2024-01-10T10:33:22.501Z,22.700
2024-01-10T10:34:43.841Z,22.200
2024-01-10T10:35:36.606Z,21.450
2024-01-10T10:36:21.731Z,21.650
2024-01-10T10:37:43.492Z,21.500
2024-01-10T10:38:26.353Z,21.700
2024-01-10T10:39:22.542Z,20.750
2024-01-10T10:40:25.427Z,21.750
2024-01-10T10:41:28.346Z,21.600
2024-01-10T10:42:40.161Z,20.850
2024-01-10T10:43:36.054Z,21.100
2024-01-10T10:44:45.245Z,22.000
2024-01-10T10:45:47.391Z,22.800
2024-01-10T10:46:24.398Z,22.200
2024-01-10T10:47:24.859Z,23.000
2024-01-10T10:48:23.139Z,22.450
2024-01-10T10:50:05.749Z,21.900
2024-01-10T10:50:36.540Z,24.500
2024-01-10T10:51:31.299Z,23.700
2024-01-10T10:52:26.227Z,22.500
2024-01-10T10:53:36.518Z,22.900
2024-01-10T10:54:28.342Z,21.400
2024-01-10T10:55:21.355Z,23.000
2024-01-10T10:57:20.209Z,25.600
2024-01-10T10:58:31.755Z,24.550
2024-01-10T10:59:26.186Z,25.000
2024-01-10T11:00:24.103Z,24.350
2024-01-10T11:01:32.522Z,24.300
2024-01-10T11:02:29.296Z,24.500
2024-01-10T11:03:24.172Z,23.650
2024-01-10T11:04:21.081Z,23.300
2024-01-10T11:05:46.241Z,22.750
2024-01-10T11:06:29.092Z,25.300
2024-01-10T11:07:37.255Z,24.300
2024-01-10T11:08:37.926Z,25.400
2024-01-10T11:09:29.714Z,26.300
2024-01-10T11:10:23.433Z,24.800
2024-01-10T11:11:20.536Z,24.200
2024-01-10T11:12:59.411Z,25.300
2024-01-10T11:13:41.871Z,24.100
2024-01-10T11:14:25.257Z,24.700
2024-01-10T11:15:32.377Z,22.700
2024-01-10T11:16:28.720Z,22.900
2024-01-10T11:17:27.383Z,23.000
2024-01-10T11:18:20.306Z,22.500
2024-01-10T11:19:44.615Z,23.250
2024-01-10T11:20:55.770Z,24.250
2024-01-10T11:21:22.598Z,25.800
2024-01-10T11:22:50.849Z,22.400
2024-01-10T11:23:39.647Z,22.200
2024-01-10T11:24:31.338Z,22.400
2024-01-10T11:25:22.780Z,22.200
2024-01-10T11:26:23.184Z,24.600
2024-01-10T11:28:03.354Z,23.500
2024-01-10T11:28:58.207Z,25.200
2024-01-10T11:29:50.936Z,23.800
2024-01-10T11:30:48.581Z,22.900
2024-01-10T11:31:36.878Z,24.100
2024-01-10T11:32:29.699Z,24.000
2024-01-10T11:33:22.377Z,24.250
2024-01-10T11:36:33.379Z,24.550
2024-01-10T11:37:49.266Z,25.100
2024-01-10T11:38:41.151Z,25.900
2024-01-10T11:39:34.046Z,24.800
2024-01-10T11:40:27.033Z,31.200
2024-01-10T11:41:23.147Z,31.500
2024-01-10T11:42:36.651Z,28.600
2024-01-10T11:44:00.706Z,28.000
2024-01-10T11:44:53.052Z,34.800
2024-01-10T11:45:25.637Z,28.500
2024-01-10T11:46:38.713Z,32.800
2024-01-10T11:47:31.658Z,34.900
2024-01-10T11:48:24.693Z,35.500
2024-01-10T11:49:19.440Z,37.300
2024-01-10T11:50:46.574Z,38.300
2024-01-10T11:51:31.480Z,36.450
2024-01-10T11:52:49.360Z,36.500
2024-01-10T11:53:42.211Z,34.500
2024-01-10T11:54:35.176Z,32.700
2024-01-10T11:55:28.074Z,32.200
2024-01-10T11:56:29.817Z,33.200
2024-01-10T11:58:01.691Z,31.400
2024-01-10T11:59:05.330Z,31.850
2024-01-10T11:59:41.138Z,30.100
2024-01-10T12:00:46.340Z,32.000
2024-01-10T12:01:39.389Z,29.000
2024-01-10T12:02:34.533Z,28.300
2024-01-10T12:03:28.350Z,27.350
2024-01-10T12:04:27.030Z,26.400
2024-01-10T12:06:08.284Z,25.800
2024-01-10T12:06:40.048Z,24.500
2024-01-10T12:07:22.112Z,25.000
2024-01-10T12:08:31.763Z,24.600
2024-01-10T12:09:39.664Z,24.600
2024-01-10T12:10:23.662Z,23.600
2024-01-10T12:11:26.583Z,23.600
2024-01-10T12:12:58.433Z,24.000
2024-01-10T12:14:04.481Z,24.000
2024-01-10T12:14:20.373Z,22.400
2024-01-10T12:15:51.089Z,22.200
2024-01-10T12:16:28.250Z,24.100
2024-01-10T12:17:39.670Z,22.000
2024-01-10T12:18:30.634Z,23.800
2024-01-10T12:19:21.431Z,23.900
2024-01-10T12:20:39.743Z,24.100
2024-01-10T12:21:49.851Z,25.500
2024-01-10T12:22:54.521Z,23.800
2024-01-10T12:23:28.616Z,23.850
2024-01-10T12:24:23.633Z,23.300
2024-01-10T12:25:32.343Z,22.300
2024-01-10T12:26:25.608Z,22.250
2024-01-10T12:27:25.428Z,23.300
2024-01-10T12:28:36.117Z,22.600
2024-01-10T12:29:44.570Z,23.100
2024-01-10T12:30:51.992Z,23.250
2024-01-10T12:31:38.272Z,22.900
2024-01-10T12:32:36.201Z,23.500
2024-01-10T12:33:30.263Z,23.750
2024-01-10T12:34:22.466Z,23.900
2024-01-10T12:35:20.755Z,25.200
2024-01-10T12:36:45.247Z,23.500
2024-01-10T12:37:43.969Z,24.150
2024-01-10T12:38:39.135Z,23.600
2024-01-10T12:39:40.237Z,22.800
2024-01-10T12:40:35.112Z,23.250
2024-01-10T12:41:28.262Z,23.100
2024-01-10T12:43:13.855Z,22.900
2024-01-10T12:44:29.850Z,22.850
2024-01-10T12:45:52.909Z,23.800
2024-01-10T12:46:46.577Z,21.100
2024-01-10T12:47:28.482Z,20.700
2024-01-10T12:48:31.530Z,21.650
2024-01-10T12:49:23.819Z,22.200
2024-01-10T12:50:31.340Z,22.250
2024-01-10T12:51:56.966Z,25.600
2024-01-10T12:52:23.352Z,23.400
2024-01-10T12:53:50.242Z,22.800